Time;durP1;ratioP1;P1;durP2;ratioP2;P2;SDS_P1;SDS_P2;PMS_P1;PMS_P2;Temp;Humidity;BMP_temperature;BMP_pressure;BME280_temperature;BME280_humidity;BME280_pressure;Samples;Min_cycle;Max_cycle;Signal;HPM_P1;HPM_P2
2023/03/17 00:01:09;;;;;;;0.30;0.30;;;;;;;;;;7416184;19;20125;-92
2023/03/17 00:03:39;;;;;;;0.30;0.30;;;;;;;;;;7397871;19;20133;-94
2023/03/17 00:06:09;;;;;;;0.77;0.77;;;;;;;;;;7395158;19;20145;-93
2023/03/17 00:08:36;;;;;;;0.37;0.37;;;;;;;;;;7396700;19;20137;-93
2023/03/17 00:11:03;;;;;;;0.30;0.30;;;;;;;;;;7396423;19;20125;-92
2023/03/17 00:13:29;;;;;;;0.30;0.30;;;;;;;;;;7394307;19;20516;-93
2023/03/17 00:16:02;;;;;;;0.30;0.30;;;;;;;;;;7394385;19;20157;-92
2023/03/17 00:18:30;;;;;;;0.40;0.40;;;;;;;;;;7396964;19;20489;-92
2023/03/17 00:20:57;;;;;;;0.63;0.63;;;;;;;;;;7397164;19;20496;-92
2023/03/17 00:23:24;;;;;;;0.30;0.30;;;;;;;;;;7395421;19;20157;-94
2023/03/17 00:25:52;;;;;;;0.40;0.40;;;;;;;;;;7394471;19;20156;-92
2023/03/17 00:28:24;;;;;;;0.30;0.30;;;;;;;;;;7396022;19;20137;-93
2023/03/17 00:30:57;;;;;;;4.37;1.00;;;;;;;;;;7396534;19;20132;-92
2023/03/17 00:33:26;;;;;;;0.57;0.57;;;;;;;;;;7393941;19;20462;-95
2023/03/17 00:35:54;;;;;;;0.27;0.27;;;;;;;;;;7403153;19;20165;-91
2023/03/17 00:38:23;;;;;;;1.60;1.03;;;;;;;;;;7414779;19;20137;-94
2023/03/17 00:40:50;;;;;;;0.30;0.30;;;;;;;;;;7405663;19;20212;-88
2023/03/17 00:43:17;;;;;;;0.30;0.30;;;;;;;;;;7398188;19;20137;-91
2023/03/17 00:45:44;;;;;;;0.47;0.47;;;;;;;;;;7392595;19;20160;-90
2023/03/17 00:48:13;;;;;;;0.77;0.73;;;;;;;;;;7392427;19;20161;-86
2023/03/17 00:50:41;;;;;;;0.30;0.30;;;;;;;;;;7397024;19;20477;-91
2023/03/17 00:53:13;;;;;;;0.60;0.60;;;;;;;;;;7393206;19;20129;-90
2023/03/17 00:55:41;;;;;;;0.33;0.33;;;;;;;;;;7394378;19;20184;-89
2023/03/17 00:58:13;;;;;;;0.30;0.30;;;;;;;;;;7402188;19;20172;-92
2023/03/17 01:00:40;;;;;;;0.63;0.63;;;;;;;;;;7399425;19;20131;-93
2023/03/17 01:03:10;;;;;;;0.40;0.40;;;;;;;;;;7398304;19;20141;-93
2023/03/17 01:05:38;;;;;;;0.83;0.83;;;;;;;;;;7396383;19;20169;-92
2023/03/17 01:08:05;;;;;;;0.50;0.50;;;;;;;;;;7400895;19;20610;-92
2023/03/17 01:10:31;;;;;;;0.83;0.83;;;;;;;;;;7396706;19;20137;-93
2023/03/17 01:12:58;;;;;;;0.30;0.30;;;;;;;;;;7395047;19;20161;-92
2023/03/17 01:15:28;;;;;;;0.20;0.20;;;;;;;;;;7396332;19;20163;-91
2023/03/17 01:17:56;;;;;;;1.20;1.10;;;;;;;;;;7397582;19;20153;-92
2023/03/17 01:20:26;;;;;;;0.27;0.27;;;;;;;;;;7396922;19;20154;-93
2023/03/17 01:22:54;;;;;;;0.30;0.30;;;;;;;;;;7396684;19;20140;-93
2023/03/17 01:25:21;;;;;;;0.30;0.30;;;;;;;;;;7396980;19;20144;-93
2023/03/17 01:27:49;;;;;;;0.30;0.30;;;;;;;;;;7394296;19;20132;-92
2023/03/17 01:30:19;;;;;;;1.23;0.67;;;;;;;;;;7396352;19;20125;-92
2023/03/17 01:32:46;;;;;;;0.30;0.30;;;;;;;;;;7395194;19;20193;-92
2023/03/17 01:35:13;;;;;;;0.40;0.40;;;;;;;;;;7396059;19;20619;-92
2023/03/17 01:37:40;;;;;;;1.17;1.07;;;;;;;;;;7396649;19;20133;-92
2023/03/17 01:40:09;;;;;;;1.00;1.00;;;;;;;;;;7397532;19;20136;-94
2023/03/17 01:42:36;;;;;;;0.67;0.67;;;;;;;;;;7393678;19;20169;-93
2023/03/17 01:45:06;;;;;;;0.30;0.30;;;;;;;;;;7392263;19;20144;-94
2023/03/17 01:47:33;;;;;;;1.03;0.60;;;;;;;;;;7392770;19;20125;-95
2023/03/17 01:50:05;;;;;;;0.30;0.30;;;;;;;;;;7391540;19;20132;-90
2023/03/17 01:52:34;;;;;;;0.47;0.47;;;;;;;;;;7391362;19;20629;-91
2023/03/17 01:55:01;;;;;;;0.30;0.30;;;;;;;;;;7393099;19;20195;-92
2023/03/17 01:57:31;;;;;;;0.20;0.20;;;;;;;;;;7393665;19;20153;-91
2023/03/17 02:00:04;;;;;;;0.30;0.30;;;;;;;;;;7393466;19;20167;-92
2023/03/17 02:02:35;;;;;;;1.03;0.63;;;;;;;;;;7414592;19;20125;-95
2023/03/17 02:05:04;;;;;;;0.30;0.30;;;;;;;;;;7425483;19;20153;-94
2023/03/17 02:07:31;;;;;;;0.33;0.33;;;;;;;;;;7425290;19;20172;-95
2023/03/17 02:09:58;;;;;;;0.50;0.50;;;;;;;;;;7425628;19;20121;-94
2023/03/17 02:12:26;;;;;;;0.27;0.27;;;;;;;;;;7425087;19;20129;-93
2023/03/17 02:14:53;;;;;;;0.30;0.30;;;;;;;;;;7432169;19;20149;-95
2023/03/17 02:17:21;;;;;;;0.30;0.30;;;;;;;;;;7432957;19;20150;-93
2023/03/17 02:19:50;;;;;;;0.50;0.50;;;;;;;;;;7433093;19;20129;-94
2023/03/17 02:22:18;;;;;;;0.40;0.40;;;;;;;;;;7432684;19;20173;-94
2023/03/17 02:24:46;;;;;;;0.57;0.57;;;;;;;;;;7432322;19;20121;-95
2023/03/17 02:27:43;;;;;;;0.40;0.40;;;;;;;;;;7432508;19;20165;-96
2023/03/17 02:30:12;;;;;;;0.20;0.20;;;;;;;;;;7431819;19;20164;-95
2023/03/17 02:32:39;;;;;;;0.20;0.20;;;;;;;;;;7430967;19;20122;-95
2023/03/17 02:35:07;;;;;;;0.20;0.20;;;;;;;;;;7431500;19;20177;-95
2023/03/17 02:37:34;;;;;;;0.30;0.30;;;;;;;;;;7432162;19;20153;-95
2023/03/17 02:40:01;;;;;;;2.23;1.07;;;;;;;;;;7432068;19;20149;-95
2023/03/17 02:42:28;;;;;;;0.20;0.20;;;;;;;;;;7431835;19;20141;-94
2023/03/17 02:44:54;;;;;;;0.93;0.70;;;;;;;;;;7431294;19;20156;-95
2023/03/17 02:47:21;;;;;;;2.00;1.50;;;;;;;;;;7431697;19;20129;-95
2023/03/17 02:49:48;;;;;;;0.30;0.30;;;;;;;;;;7431715;19;20178;-96
2023/03/17 02:52:14;;;;;;;0.30;0.30;;;;;;;;;;7431165;19;20133;-93
2023/03/17 02:54:41;;;;;;;0.30;0.30;;;;;;;;;;7431115;19;20121;-95
2023/03/17 02:57:08;;;;;;;0.50;0.50;;;;;;;;;;7431542;19;20125;-95
2023/03/17 02:59:35;;;;;;;0.30;0.30;;;;;;;;;;7431319;19;20125;-95
2023/03/17 03:02:02;;;;;;;0.93;0.93;;;;;;;;;;7431515;19;20578;-96
2023/03/17 03:04:29;;;;;;;0.57;0.57;;;;;;;;;;7431246;19;20129;-96
2023/03/17 03:06:56;;;;;;;0.40;0.40;;;;;;;;;;7428430;19;20157;-95
